Time;durP1;ratioP1;P1;durP2;ratioP2;P2;SDS_P1;SDS_P2;PMS_P1;PMS_P2;Temp;Humidity;BMP_temperature;BMP_pressure;BME280_temperature;BME280_humidity;BME280_pressure;Samples;Min_cycle;Max_cycle;Signal;HPM_P1;HPM_P2
2021/06/11 00:04:14;;;;;;;7.63;6.00;;;;;;;19.23;100.00;102004.84;1946233;73;39660;-76
2021/06/11 00:09:38;;;;;;;8.57;6.40;;;;;;;19.25;100.00;101997.48;1892378;74;86524;-75
2021/06/11 00:15:08;;;;;;;8.00;6.50;;;;;;;19.24;100.00;101987.36;1948708;73;39643;-76
2021/06/11 00:20:32;;;;;;;9.57;6.73;;;;;;;19.15;100.00;101983.62;1929891;72;86447;-74
2021/06/11 00:25:56;;;;;;;8.23;6.07;;;;;;;19.12;100.00;101985.67;1874062;75;85622;-74
2021/06/11 00:31:21;;;;;;;8.57;6.60;;;;;;;19.26;100.00;101983.64;1914359;73;39688;-76
2021/06/11 00:36:45;;;;;;;9.80;6.90;;;;;;;19.18;100.00;101982.98;1903462;74;86501;-76
2021/06/11 00:42:11;;;;;;;9.23;6.57;;;;;;;19.24;100.00;101983.14;1946924;73;39529;-76
2021/06/11 00:47:36;;;;;;;10.27;7.10;;;;;;;19.27;100.00;101981.08;1881724;75;86543;-75
2021/06/11 00:53:08;;;;;;;12.13;8.50;;;;;;;19.19;100.00;101977.61;1785021;79;86477;-76
2021/06/11 00:58:33;;;;;;;12.23;8.10;;;;;;;19.10;100.00;101980.34;1845654;77;86348;-76
2021/06/11 01:03:57;;;;;;;10.83;7.87;;;;;;;19.03;100.00;101975.14;1751704;80;86301;-77
2021/06/11 01:09:23;;;;;;;13.17;8.67;;;;;;;19.06;100.00;101977.32;1944498;72;39589;-76
2021/06/11 01:14:48;;;;;;;11.00;7.77;;;;;;;19.02;100.00;101976.28;1868627;76;86766;-76
2021/06/11 01:20:17;;;;;;;11.50;7.90;;;;;;;19.09;100.00;101978.09;1946064;73;39698;-76
2021/06/11 01:26:26;;;;;;;12.93;9.03;;;;;;;19.08;100.00;101989.09;1944708;73;39591;-75
2021/06/11 01:31:55;;;;;;;13.67;8.27;;;;;;;18.99;100.00;101978.91;1785103;79;86453;-76
2021/06/11 01:37:31;;;;;;;14.63;9.47;;;;;;;18.94;100.00;101974.22;1915667;73;39882;-76
2021/06/11 01:43:01;;;;;;;12.57;8.60;;;;;;;18.92;100.00;101977.91;1942925;71;86155;-76
2021/06/11 01:48:26;;;;;;;14.17;9.37;;;;;;;18.94;100.00;101984.07;1944414;73;39590;-75
2021/06/11 01:53:53;;;;;;;14.23;9.33;;;;;;;18.94;100.00;101975.63;1760575;80;86177;-75
2021/06/11 01:59:18;;;;;;;12.63;8.00;;;;;;;18.88;100.00;101990.94;1945445;73;39628;-76
2021/06/11 02:05:07;;;;;;;13.03;9.17;;;;;;;18.98;100.00;101982.29;1885172;74;86162;-75
2021/06/11 02:10:33;;;;;;;10.00;7.80;;;;;;;18.82;100.00;101985.17;1926546;72;39552;-76
2021/06/11 02:15:59;;;;;;;10.93;7.47;;;;;;;18.85;100.00;101974.69;1946553;71;85419;-76
2021/06/11 02:21:25;;;;;;;11.90;7.23;;;;;;;18.80;100.00;101974.78;1944362;73;39806;-76
2021/06/11 02:26:50;;;;;;;9.47;6.80;;;;;;;18.84;100.00;101974.98;1777476;80;85820;-76
2021/06/11 02:32:16;;;;;;;8.50;6.60;;;;;;;18.77;100.00;101985.28;1933790;72;39800;-76
2021/06/11 02:37:41;;;;;;;7.30;6.03;;;;;;;18.76;100.00;101977.13;1876987;75;86904;-75
2021/06/11 02:43:27;;;;;;;8.03;5.83;;;;;;;18.74;100.00;101977.43;1980849;71;39644;-77
2021/06/11 02:48:55;;;;;;;8.53;6.50;;;;;;;18.73;100.00;101971.56;1798754;77;86306;-77
2021/06/11 02:57:13;;;;;;;8.40;6.30;;;;;;;18.64;100.00;101971.46;2002635;69;39651;-77
2021/06/11 02:59:46;;;;;;;9.67;6.70;;;;;;;18.56;100.00;101982.61;1936093;73;934591;-77
2021/06/11 03:02:20;;;;;;;9.63;7.12;;;;;;;18.54;100.00;101975.87;1891741;73;937005;-77
2021/06/11 03:04:52;;;;;;;9.10;6.13;;;;;;;18.54;100.00;101979.26;1908777;73;936635;-75
2021/06/11 03:07:26;;;;;;;9.37;6.80;;;;;;;18.51;100.00;101977.05;1842733;75;936572;-75
2021/06/11 03:09:58;;;;;;;10.20;7.20;;;;;;;18.57;100.00;101978.05;1833403;77;934940;-76
2021/06/11 03:12:30;;;;;;;11.10;7.53;;;;;;;18.56;100.00;101974.17;1821168;77;938933;-76
2021/06/11 03:17:57;;;;;;;9.90;7.10;;;;;;;18.55;100.00;101971.09;1869389;76;86264;-77
2021/06/11 03:23:26;;;;;;;9.87;6.73;;;;;;;18.60;100.00;101966.20;1944537;73;39789;-76
2021/06/11 03:25:59;;;;;;;10.40;7.30;;;;;;;18.61;100.00;101974.08;1893042;75;932784;-77
2021/06/11 03:34:18;;;;;;;11.67;7.20;;;;;;;18.61;100.00;101960.80;2000322;69;39419;-77
2021/06/11 03:36:51;;;;;;;9.80;6.70;;;;;;;18.59;100.00;101967.91;1936290;73;936540;-76
2021/06/11 03:42:19;;;;;;;10.90;6.87;;;;;;;18.73;100.00;101959.47;1916151;73;39647;-76
2021/06/11 03:47:46;;;;;;;12.43;7.70;;;;;;;18.64;100.00;101963.02;1869294;76;86332;-75
2021/06/11 03:53:18;;;;;;;8.93;6.20;;;;;;;18.65;100.00;101977.33;1935017;72;39493;-76
2021/06/11 03:58:45;;;;;;;9.63;6.87;;;;;;;18.65;100.00;101987.78;1837423;77;86295;-76
2021/06/11 04:04:12;;;;;;;10.20;7.03;;;;;;;18.54;100.00;101980.09;1918961;73;39584;-76
2021/06/11 04:09:44;;;;;;;11.57;7.37;;;;;;;18.58;100.00;101985.93;1877072;75;86652;-77
2021/06/11 04:15:14;;;;;;;7.83;5.70;;;;;;;18.60;100.00;101985.91;1919303;73;39766;-76
2021/06/11 04:17:48;;;;;;;7.90;6.00;;;;;;;18.57;100.00;101994.11;1836201;76;934584;-77
2021/06/11 04:23:17;;;;;;;7.73;5.97;;;;;;;18.65;100.00;101976.52;1946129;73;39532;-77
2021/06/11 04:28:42;;;;;;;13.50;6.80;;;;;;;18.61;100.00;101972.66;1837232;77;86748;-76
2021/06/11 04:34:07;;;;;;;8.80;6.30;;;;;;;18.64;100.00;101969.22;1948281;73;39531;-77
2021/06/11 04:39:34;;;;;;;9.70;7.10;;;;;;;18.56;100.00;101974.17;1943280;73;39531;-75
2021/06/11 04:45:00;;;;;;;13.13;7.40;;;;;;;18.67;100.00;101987.45;1941080;73;39532;-76
2021/06/11 04:50:23;;;;;;;9.03;5.97;;;;;;;18.61;100.00;101985.33;1914581;73;39880;-77
2021/06/11 04:55:48;;;;;;;7.07;5.83;;;;;;;18.61;100.00;101994.58;1837763;77;86250;-77
2021/06/11 05:01:12;;;;;;;6.93;6.00;;;;;;;18.57;100.00;101994.94;1934873;72;39930;-77
2021/06/11 05:06:36;;;;;;;7.13;5.77;;;;;;;18.55;100.00;101997.25;1877330;75;86438;-76
2021/06/11 05:12:01;;;;;;;5.57;4.23;;;;;;;18.62;100.00;101992.60;1925789;73;39862;-76
2021/06/11 05:17:25;;;;;;;5.30;4.30;;;;;;;18.65;100.00;101992.00;1944356;73;39681;-75
2021/06/11 05:22:50;;;;;;;5.17;4.67;;;;;;;18.58;100.00;101993.80;1825296;76;86081;-76
2021/06/11 05:28:14;;;;;;;4.30;3.90;;;;;;;18.69;100.00;102002.90;1934268;72;39595;-75
2021/06/11 05:33:39;;;;;;;3.80;3.40;;;;;;;18.84;100.00;102005.95;1876962;75;86961;-75
2021/06/11 05:39:03;;;;;;;3.43;3.10;;;;;;;18.82;100.00;102006.86;1948740;73;39585;-76
2021/06/11 05:44:28;;;;;;;4.23;3.53;;;;;;;18.84;100.00;102002.57;1890859;73;39625;-77
2021/06/11 05:49:51;;;;;;;4.03;3.63;;;;;;;18.85;100.00;102014.67;1798781;77;86467;-76
2021/06/11 05:55:16;;;;;;;3.57;3.00;;;;;;;18.86;100.00;102001.70;1916907;72;39682;-76
2021/06/11 06:00:41;;;;;;;4.17;3.10;;;;;;;18.94;100.00;102002.94;1876933;75;86175;-74
2021/06/11 06:06:05;;;;;;;3.50;3.20;;;;;;;19.04;100.00;101999.89;1938531;72;39621;-76
2021/06/11 06:11:29;;;;;;;2.90;2.50;;;;;;;18.94;100.00;101999.55;1910087;73;39503;-71
2021/06/11 06:16:54;;;;;;;3.37;2.20;;;;;;;18.98;100.00;101997.78;1869302;77;86206;-76
2021/06/11 06:22:21;;;;;;;2.27;2.10;;;;;;;19.08;100.00;102000.95;1914867;73;39498;-71
2021/06/11 06:27:47;;;;;;;2.47;1.97;;;;;;;19.10;100.00;102000.05;1881613;75;86482;-72
2021/06/11 06:33:14;;;;;;;1.90;1.53;;;;;;;19.19;100.00;102008.02;1946735;73;39596;-72
2021/06/11 06:38:39;;;;;;;3.13;2.00;;;;;;;19.17;100.00;102014.53;1877388;75;86392;-72
2021/06/11 06:44:05;;;;;;;1.90;1.80;;;;;;;19.29;100.00;102005.56;1949028;73;39525;-72
2021/06/11 06:49:30;;;;;;;1.97;1.77;;;;;;;19.23;100.00;102006.81;1910282;73;39771;-72
2021/06/11 06:54:55;;;;;;;2.30;1.70;;;;;;;19.33;100.00;102008.84;1897388;75;86362;-73
2021/06/11 07:00:37;;;;;;;2.03;1.70;;;;;;;19.45;100.00;101997.89;1915791;73;86062;-71
2021/06/11 07:06:03;;;;;;;2.43;1.70;;;;;;;19.59;100.00;102006.87;1939581;73;39800;-74
2021/06/11 07:11:27;;;;;;;1.70;1.60;;;;;;;19.63;100.00;102009.32;1895097;73;39775;-72
2021/06/11 07:16:51;;;;;;;1.57;1.40;;;;;;;19.71;100.00;102017.84;1752037;80;86347;-73
2021/06/11 07:22:35;;;;;;;2.03;1.20;;;;;;;19.73;100.00;102008.48;1915839;73;85632;-74
2021/06/11 07:28:01;;;;;;;1.83;1.60;;;;;;;19.97;100.00;102018.90;1879021;75;86406;-73
2021/06/11 07:33:33;;;;;;;2.13;1.40;;;;;;;19.91;100.00;102015.94;1893077;73;39604;-73
2021/06/11 07:41:44;;;;;;;1.73;1.60;;;;;;;19.97;100.00;102018.90;1915593;75;85683;-72
2021/06/11 07:44:14;;;;;;;2.00;1.45;;;;;;;19.96;100.00;102027.67;1819784;77;934677;-73
2021/06/11 07:46:44;;;;;;;1.67;1.57;;;;;;;19.99;100.00;102029.84;1831692;77;936622;-72
2021/06/11 07:49:14;;;;;;;1.40;1.30;;;;;;;19.95;100.00;102028.81;1819648;77;936961;-73
2021/06/11 07:51:45;;;;;;;1.20;1.10;;;;;;;19.94;100.00;102023.75;1801450;79;936819;-72
2021/06/11 07:57:11;;;;;;;1.60;1.50;;;;;;;20.03;100.00;102027.20;1921300;73;39675;-73
2021/06/11 08:02:36;;;;;;;1.67;1.57;;;;;;;20.22;100.00;102026.45;1877436;75;86338;-72
2021/06/11 08:08:03;;;;;;;1.90;1.70;;;;;;;20.30;100.00;102024.29;1949317;73;39846;-73
2021/06/11 08:13:27;;;;;;;3.17;1.90;;;;;;;20.50;100.00;102019.50;1944346;73;39560;-72
2021/06/11 08:18:52;;;;;;;2.47;2.00;;;;;;;20.42;100.00;102023.95;1947773;71;86809;-74
2021/06/11 08:24:17;;;;;;;2.83;2.10;;;;;;;20.43;100.00;102032.67;1934574;72;39579;-76
2021/06/11 08:29:44;;;;;;;2.30;1.80;;;;;;;20.78;100.00;102028.05;1869747;76;85638;-73
2021/06/11 08:35:10;;;;;;;1.97;1.80;;;;;;;21.14;100.00;102034.08;1947776;72;39681;-73
2021/06/11 08:40:41;;;;;;;2.33;1.50;;;;;;;21.30;100.00;102019.77;1882984;75;86721;-73
2021/06/11 08:46:06;;;;;;;2.33;1.60;;;;;;;21.37;100.00;102021.52;1952460;73;39529;-76
2021/06/11 08:51:32;;;;;;;1.77;1.50;;;;;;;21.44;100.00;102019.02;1889642;73;39507;-76
2021/06/11 08:56:56;;;;;;;1.80;1.57;;;;;;;21.50;100.00;102024.78;1865398;75;86516;-76
2021/06/11 09:02:23;;;;;;;2.80;1.40;;;;;;;21.43;100.00;102027.27;1914574;72;39715;-76
2021/06/11 09:07:50;;;;;;;1.87;1.57;;;;;;;21.38;100.00;102026.02;1851368;75;86759;-73
2021/06/11 09:13:32;;;;;;;3.33;1.93;;;;;;;21.34;100.00;102023.59;1915998;74;39762;-73
2021/06/11 09:19:07;;;;;;;1.80;1.70;;;;;;;21.29;100.00;102016.11;1949246;72;39689;-72
2021/06/11 09:24:36;;;;;;;2.10;1.83;;;;;;;21.72;100.00;102012.48;1877425;75;86766;-73
2021/06/11 09:30:17;;;;;;;2.30;2.10;;;;;;;22.13;100.00;102009.98;1932744;72;39499;-73
2021/06/11 09:35:53;;;;;;;1.80;1.70;;;;;;;22.43;100.00;102010.92;1947847;71;86611;-73
2021/06/11 09:41:20;;;;;;;2.30;2.03;;;;;;;22.67;100.00;102001.86;1945602;73;39644;-73
2021/06/11 09:46:51;;;;;;;2.23;1.93;;;;;;;22.97;100.00;102001.34;1752426;80;86437;-72
2021/06/11 09:52:15;;;;;;;2.73;1.60;;;;;;;23.10;100.00;101998.23;1946198;73;39728;-72
2021/06/11 09:57:38;;;;;;;1.95;1.60;;;;;;;23.51;100.00;101998.92;1876966;75;86359;-76
2021/06/11 10:03:11;;;;;;;1.95;1.45;;;;;;;23.62;100.00;101985.76;1949019;73;39584;-73
2021/06/11 10:08:38;;;;;;;2.45;1.60;;;;;;;23.21;100.00;101983.09;1877476;75;86363;-74
2021/06/11 10:14:04;;;;;;;1.67;1.40;;;;;;;23.01;100.00;101993.23;1907616;73;39601;-75
2021/06/11 10:19:29;;;;;;;2.05;1.72;;;;;;;23.01;100.00;101996.06;1943962;73;39466;-74
2021/06/11 10:24:56;;;;;;;2.00;1.80;;;;;;;22.92;100.00;101993.86;1943507;71;86112;-73
2021/06/11 10:30:23;;;;;;;2.37;1.75;;;;;;;22.84;100.00;101993.90;1945340;73;39561;-73
2021/06/11 10:35:50;;;;;;;1.82;1.70;;;;;;;22.88;100.00;101983.55;1832554;78;86640;-77
2021/06/11 10:41:29;;;;;;;1.73;1.43;;;;;;;22.92;100.00;101977.44;1931878;72;39790;-73
2021/06/11 10:46:55;;;;;;;2.15;1.50;;;;;;;23.12;100.00;101970.97;1782634;78;86490;-73
2021/06/11 10:52:31;;;;;;;1.80;1.60;;;;;;;23.50;100.00;101960.97;1945650;73;39418;-73
2021/06/11 10:58:40;;;;;;;2.72;1.85;;;;;;;23.53;100.00;101952.59;1782737;78;86347;-73
2021/06/11 11:04:32;;;;;;;2.63;1.70;;;;;;;23.92;100.00;101946.97;1896283;73;39739;-73
2021/06/11 11:10:36;;;;;;;3.12;1.50;;;;;;;24.17;100.00;101948.52;1927800;72;39518;-73
2021/06/11 11:16:06;;;;;;;2.72;1.80;;;;;;;24.24;100.00;101949.60;1948770;73;39418;-73
2021/06/11 11:21:39;;;;;;;3.17;1.20;;;;;;;23.96;100.00;101932.33;1892568;74;86391;-73
2021/06/11 11:27:07;;;;;;;2.00;1.50;;;;;;;23.99;100.00;101923.72;1948711;73;39531;-72
2021/06/11 11:32:34;;;;;;;1.67;1.50;;;;;;;24.47;100.00;101916.72;1943008;73;39484;-77
2021/06/11 11:38:01;;;;;;;1.80;1.32;;;;;;;24.51;100.00;101924.55;1838637;77;86087;-72
2021/06/11 11:43:29;;;;;;;3.00;1.80;;;;;;;24.28;100.00;101921.32;1943872;73;39652;-73
2021/06/11 11:48:54;;;;;;;1.42;1.32;;;;;;;24.11;100.00;101922.32;1947575;71;85493;-72
2021/06/11 11:54:20;;;;;;;1.67;1.57;;;;;;;24.17;100.00;101914.45;1953388;73;39557;-72
2021/06/11 11:59:42;;;;;;;1.87;1.50;;;;;;;24.44;100.00;101906.66;1832463;78;86415;-72
2021/06/11 12:05:10;;;;;;;1.67;1.47;;;;;;;24.41;100.00;101913.89;1923088;73;39723;-73
2021/06/11 12:10:34;;;;;;;2.15;1.65;;;;;;;24.31;100.00;101908.66;1891571;74;86516;-76
2021/06/11 12:15:58;;;;;;;2.50;1.70;;;;;;;24.45;100.00;101895.55;1838843;77;86022;-76
2021/06/11 12:21:23;;;;;;;1.52;1.37;;;;;;;24.57;100.00;101901.81;1842847;76;39708;-73
2021/06/11 12:26:49;;;;;;;7.75;5.90;;;;;;;24.37;100.00;101895.07;1837958;77;86286;-73
2021/06/11 12:32:14;;;;;;;3.10;1.72;;;;;;;24.40;100.00;101889.50;1923007;73;39525;-73
2021/06/11 12:37:38;;;;;;;1.82;1.20;;;;;;;24.45;100.00;101899.22;1893200;74;86559;-73
2021/06/11 12:43:06;;;;;;;1.90;1.50;;;;;;;24.52;100.00;101896.39;1949262;73;39769;-72
2021/06/11 12:48:31;;;;;;;2.33;1.42;;;;;;;24.71;100.00;101898.03;1909552;73;39537;-73
2021/06/11 12:53:56;;;;;;;3.40;1.25;;;;;;;24.69;100.00;101899.80;1885034;75;86980;-73
2021/06/11 12:59:19;;;;;;;1.85;1.20;;;;;;;24.73;100.00;101887.16;1921528;73;39666;-73
2021/06/11 13:04:44;;;;;;;1.30;1.20;;;;;;;24.83;100.00;101883.81;1837431;77;85649;-75
2021/06/11 13:10:12;;;;;;;1.70;1.60;;;;;;;24.73;100.00;101889.38;1936153;72;39618;-75
2021/06/11 13:15:36;;;;;;;2.08;1.80;;;;;;;24.63;100.00;101886.20;1881820;75;86901;-76
2021/06/11 13:21:04;;;;;;;1.98;1.52;;;;;;;24.65;100.00;101888.91;1924359;73;39426;-72
2021/06/11 13:26:30;;;;;;;3.45;3.15;;;;;;;24.79;100.00;101889.39;1907770;72;39627;-76
2021/06/11 13:31:56;;;;;;;3.45;2.33;;;;;;;24.55;100.00;101881.47;1807932;79;86718;-73
2021/06/11 13:37:20;;;;;;;1.20;1.10;;;;;;;24.66;100.00;101871.27;1930414;72;39607;-75
2021/06/11 13:42:48;;;;;;;1.40;1.30;;;;;;;25.13;100.00;101873.84;1868604;76;86689;-75
2021/06/11 13:48:12;;;;;;;1.62;1.10;;;;;;;25.13;100.00;101868.73;1947082;73;39566;-77
2021/06/11 13:53:36;;;;;;;1.50;1.35;;;;;;;24.93;100.00;101863.47;1880967;75;86198;-73
2021/06/11 13:59:00;;;;;;;1.92;1.70;;;;;;;24.80;100.00;101869.73;1839007;77;86477;-73
2021/06/11 14:04:24;;;;;;;2.35;1.87;;;;;;;24.85;100.00;101864.40;1928815;72;40310;-73
2021/06/11 14:09:49;;;;;;;1.30;1.20;;;;;;;24.93;100.00;101866.30;1837988;77;86594;-73
2021/06/11 14:15:16;;;;;;;2.55;1.80;;;;;;;25.12;100.00;101851.44;1919871;73;40292;-73
2021/06/11 14:20:41;;;;;;;1.52;1.40;;;;;;;25.12;100.00;101851.44;1877530;75;86723;-73
2021/06/11 14:26:05;;;;;;;2.02;1.25;;;;;;;25.22;100.00;101858.88;1948695;73;39688;-78
2021/06/11 14:31:31;;;;;;;1.67;1.55;;;;;;;25.17;100.00;101867.66;1943615;73;39470;-73
2021/06/11 14:36:55;;;;;;;2.00;1.65;;;;;;;25.23;100.00;101871.92;1838880;77;86568;-73
2021/06/11 14:42:20;;;;;;;4.00;2.35;;;;;;;25.22;100.00;101875.95;1945220;73;39605;-75
2021/06/11 14:47:44;;;;;;;3.05;1.52;;;;;;;25.08;100.00;101871.83;1869419;76;85990;-75
2021/06/11 14:53:11;;;;;;;1.60;1.50;;;;;;;25.12;100.00;101879.88;1946789;73;40446;-76
2021/06/11 14:58:54;;;;;;;1.95;1.05;;;;;;;25.12;100.00;101878.45;1845744;76;86206;-74
2021/06/11 15:04:25;;;;;;;1.60;1.25;;;;;;;25.24;100.00;101877.85;1944432;73;39664;-76
2021/06/11 15:09:49;;;;;;;1.45;1.20;;;;;;;25.11;100.00;101874.80;1908662;74;86416;-76
2021/06/11 15:15:18;;;;;;;1.72;1.10;;;;;;;24.90;100.00;101876.36;1900068;73;39515;-75
2021/06/11 15:20:47;;;;;;;0.98;0.98;;;;;;;24.94;100.00;101881.56;1892562;74;86667;-74
2021/06/11 15:26:11;;;;;;;1.55;1.22;;;;;;;24.97;100.00;101879.20;1944824;73;39611;-74
2021/06/11 15:31:38;;;;;;;3.50;1.00;;;;;;;24.71;100.00;101883.23;1877427;75;85413;-73
2021/06/11 15:37:03;;;;;;;1.15;1.05;;;;;;;24.77;100.00;101878.15;1939625;72;39584;-73
2021/06/11 15:42:26;;;;;;;1.82;1.10;;;;;;;24.78;100.00;101876.94;1943885;73;39762;-77
2021/06/11 15:47:50;;;;;;;1.30;1.20;;;;;;;24.75;100.00;101887.61;1777355;79;86345;-74
2021/06/11 15:53:20;;;;;;;1.80;1.00;;;;;;;24.86;100.00;101881.70;1918851;73;39800;-73
2021/06/11 15:58:43;;;;;;;1.52;1.00;;;;;;;24.91;100.00;101882.29;1890733;75;86386;-73
2021/06/11 16:04:07;;;;;;;4.53;1.72;;;;;;;24.88;100.00;101890.70;1938376;72;40524;-73
2021/06/11 16:09:31;;;;;;;1.92;1.27;;;;;;;24.75;100.00;101895.55;1943130;73;39634;-76
2021/06/11 16:14:47;;;;;;;3.35;1.98;;;;;;;24.63;100.00;101901.83;1842068;78;86350;-75
2021/06/11 16:17:18;;;;;;;2.47;1.82;;;;;;;24.45;100.00;101905.48;1801159;77;934563;-79
2021/06/11 16:19:48;;;;;;;2.35;1.40;;;;;;;24.46;100.00;101906.56;1739810;80;936830;-78
2021/06/11 16:22:18;;;;;;;1.85;1.20;;;;;;;24.42;100.00;101895.67;1743420;80;936831;-75
2021/06/11 16:24:48;;;;;;;1.15;1.05;;;;;;;24.43;100.00;101895.09;1741321;81;936704;-77
2021/06/11 16:27:18;;;;;;;1.10;0.98;;;;;;;24.45;100.00;101896.97;1740139;80;936650;-75
2021/06/11 16:29:48;;;;;;;2.27;0.90;;;;;;;24.47;100.00;101893.20;1756413;80;936599;-76
2021/06/11 16:32:18;;;;;;;1.67;1.00;;;;;;;24.49;100.00;101901.59;1745021;80;936651;-73
2021/06/11 16:34:48;;;;;;;1.60;1.35;;;;;;;24.51;100.00;101896.15;1758754;80;936904;-75
2021/06/11 16:37:18;;;;;;;1.00;1.00;;;;;;;24.46;100.00;101898.63;1730507;80;936913;-77
2021/06/11 16:39:48;;;;;;;1.10;1.00;;;;;;;24.33;100.00;101899.80;1741753;80;936625;-74
2021/06/11 16:42:19;;;;;;;1.17;1.00;;;;;;;24.24;100.00;101899.08;1693612;80;936716;-74
2021/06/11 16:44:51;;;;;;;1.87;1.60;;;;;;;24.14;100.00;101899.48;1731616;80;936700;-78
2021/06/11 16:50:16;;;;;;;1.65;1.17;;;;;;;24.02;100.00;101896.04;1918050;73;39524;-71
2021/06/11 16:55:41;;;;;;;2.55;1.25;;;;;;;23.84;100.00;101911.59;1877346;75;86091;-72
2021/06/11 17:01:06;;;;;;;1.32;1.05;;;;;;;23.87;100.00;101907.48;1933706;72;39553;-73
2021/06/11 17:03:36;;;;;;;1.70;1.15;;;;;;;23.78;100.00;101910.17;1844847;75;934819;-74
2021/06/11 17:09:01;;;;;;;2.30;1.30;;;;;;;23.87;100.00;101901.81;1930451;72;40335;-74
2021/06/11 17:14:27;;;;;;;2.20;1.30;;;;;;;24.05;100.00;101905.27;1913735;73;39491;-74
2021/06/11 17:19:54;;;;;;;4.65;2.87;;;;;;;24.13;100.00;101911.46;1833026;78;86452;-73
2021/06/11 17:25:23;;;;;;;6.05;3.27;;;;;;;24.55;100.00;101905.63;1934151;72;39612;-74
2021/06/11 17:30:47;;;;;;;3.87;3.45;;;;;;;24.59;100.00;101912.25;1837401;77;86459;-73
2021/06/11 17:36:32;;;;;;;7.42;4.35;;;;;;;24.48;100.00;101901.92;1943370;73;39803;-74
2021/06/11 17:41:58;;;;;;;3.05;1.60;;;;;;;24.11;100.00;101897.36;1798703;77;85938;-74
2021/06/11 17:47:27;;;;;;;7.80;4.35;;;;;;;24.02;100.00;101904.55;1913271;73;39578;-74
2021/06/11 17:52:51;;;;;;;4.95;4.45;;;;;;;24.47;100.00;101905.36;1825294;76;86330;-74
2021/06/11 17:58:27;;;;;;;4.67;2.10;;;;;;;24.44;100.00;101901.81;1943712;73;39583;-73
2021/06/11 18:04:00;;;;;;;1.90;1.50;;;;;;;23.94;100.00;101891.30;1838047;77;86435;-74
2021/06/11 18:09:23;;;;;;;2.17;1.52;;;;;;;23.83;100.00;101893.73;1944288;73;39785;-74
2021/06/11 18:14:58;;;;;;;1.55;1.30;;;;;;;23.81;100.00;101885.34;1839366;77;86566;-72
2021/06/11 18:20:25;;;;;;;1.50;1.40;;;;;;;23.78;100.00;101892.55;1913185;73;39601;-74
2021/06/11 18:26:02;;;;;;;1.70;1.57;;;;;;;23.73;100.00;101892.77;1943944;71;85605;-73
2021/06/11 18:31:26;;;;;;;2.05;1.45;;;;;;;23.65;100.00;101894.27;1943909;73;39783;-73
2021/06/11 18:36:52;;;;;;;2.45;1.98;;;;;;;23.56;100.00;101885.27;1943428;70;86745;-73
2021/06/11 18:42:20;;;;;;;1.57;1.47;;;;;;;23.44;100.00;101888.05;1945015;73;39498;-72
2021/06/11 18:47:47;;;;;;;2.20;2.00;;;;;;;23.47;100.00;101900.69;1882794;75;85354;-73
2021/06/11 18:53:17;;;;;;;2.00;1.80;;;;;;;23.34;100.00;101906.86;1946227;73;39371;-72
2021/06/11 18:58:48;;;;;;;1.80;1.42;;;;;;;23.46;100.00;101914.63;1869328;77;86826;-74
2021/06/11 19:04:26;;;;;;;1.98;1.42;;;;;;;23.33;100.00;101913.70;1893836;73;39547;-74
2021/06/11 19:10:05;;;;;;;1.60;1.50;;;;;;;23.35;100.00;101923.29;1838186;77;86418;-73
2021/06/11 19:15:30;;;;;;;1.40;1.30;;;;;;;23.17;100.00;101930.25;1943179;73;39853;-74
2021/06/11 19:21:08;;;;;;;1.85;1.37;;;;;;;23.01;100.00;101929.45;1838096;77;86316;-74
2021/06/11 19:29:33;;;;;;;2.02;1.70;;;;;;;22.80;100.00;101929.17;1952088;71;39412;-74
2021/06/11 19:32:05;;;;;;;2.08;1.82;;;;;;;22.72;100.00;101917.31;1844915;76;932370;-73
2021/06/11 19:34:35;;;;;;;1.60;1.50;;;;;;;22.65;100.00;101927.12;1835436;77;936631;-73
2021/06/11 19:37:06;;;;;;;1.85;1.50;;;;;;;22.55;100.00;101926.66;1845075;76;934744;-73
2021/06/11 19:39:45;;;;;;;2.55;1.70;;;;;;;22.57;100.00;101932.25;1835404;77;936534;-74
2021/06/11 19:42:20;;;;;;;1.45;1.35;;;;;;;22.59;100.00;101931.92;1823249;77;936596;-73
2021/06/11 19:48:11;;;;;;;2.45;1.82;;;;;;;22.50;100.00;101927.71;1947416;73;39411;-74
2021/06/11 19:53:39;;;;;;;3.12;1.77;;;;;;;22.40;100.00;101922.41;1877183;75;85623;-74
2021/06/11 20:01:52;;;;;;;1.95;1.70;;;;;;;22.18;100.00;101921.23;1909660;74;86279;-73
2021/06/11 20:04:22;;;;;;;3.60;2.02;;;;;;;22.12;100.00;101936.76;1756680;78;934802;-73
2021/06/11 20:06:52;;;;;;;3.23;2.17;;;;;;;22.07;100.00;101934.94;1786166;79;936542;-74
2021/06/11 20:09:22;;;;;;;2.83;2.08;;;;;;;21.97;100.00;101935.28;1763165;79;936639;-72
2021/06/11 20:11:53;;;;;;;2.00;1.87;;;;;;;21.92;100.00;101938.83;1785049;78;936736;-73
2021/06/11 20:14:24;;;;;;;2.03;1.83;;;;;;;21.91;100.00;101942.23;1760345;78;936527;-72
2021/06/11 20:16:54;;;;;;;2.42;1.90;;;;;;;21.84;100.00;101943.92;1746641;80;935264;-74
2021/06/11 20:22:19;;;;;;;2.17;1.93;;;;;;;21.73;100.00;101940.05;1898266;73;39589;-74
2021/06/11 20:27:44;;;;;;;2.00;1.77;;;;;;;21.67;100.00;101952.68;1868043;75;86731;-75
2021/06/11 20:33:09;;;;;;;2.73;1.90;;;;;;;21.50;100.00;101961.16;1946748;73;39469;-74
2021/06/11 20:38:34;;;;;;;2.53;2.10;;;;;;;21.38;100.00;101959.58;1876910;75;86778;-74
2021/06/11 20:44:00;;;;;;;2.80;2.60;;;;;;;21.35;100.00;101958.23;1867147;75;86706;-73
2021/06/11 20:49:23;;;;;;;2.43;2.23;;;;;;;21.25;100.00;101961.98;1929101;72;40148;-73
2021/06/11 20:54:47;;;;;;;3.93;2.47;;;;;;;21.13;100.00;101971.69;1882756;75;86398;-73
2021/06/11 21:00:15;;;;;;;4.05;2.58;;;;;;;21.12;100.00;101984.98;1918972;73;39528;-74
2021/06/11 21:05:39;;;;;;;3.83;2.30;;;;;;;21.14;100.00;101981.80;1882375;75;86460;-74
2021/06/11 21:11:03;;;;;;;2.43;2.23;;;;;;;21.05;100.00;101988.81;1948609;73;39427;-76
2021/06/11 21:16:28;;;;;;;3.03;2.10;;;;;;;21.05;100.00;101995.87;1943497;73;39418;-77
2021/06/11 21:21:52;;;;;;;4.60;3.33;;;;;;;21.13;100.00;101995.70;1844378;75;86778;-74
2021/06/11 21:27:17;;;;;;;3.07;2.53;;;;;;;21.13;100.00;101996.55;1898159;73;39472;-78
2021/06/11 21:32:42;;;;;;;2.47;2.27;;;;;;;21.03;100.00;102014.33;1837156;77;86708;-76
2021/06/11 21:38:08;;;;;;;3.73;2.80;;;;;;;21.04;100.00;102006.11;1947273;73;39664;-74
2021/06/11 21:43:36;;;;;;;3.20;2.60;;;;;;;20.92;100.00;102002.52;1942829;73;39541;-72
2021/06/11 21:48:57;;;;;;;3.40;2.90;;;;;;;20.86;100.00;102019.34;1891816;74;86467;-73
2021/06/11 21:54:25;;;;;;;4.03;2.80;;;;;;;20.84;100.00;102011.19;1944866;73;39717;-73
2021/06/11 21:59:48;;;;;;;3.63;2.90;;;;;;;20.86;100.00;102016.52;1837776;77;86509;-72
2021/06/11 22:05:14;;;;;;;4.27;3.00;;;;;;;20.79;100.00;102012.73;1946629;73;39813;-71
2021/06/11 22:10:39;;;;;;;3.10;2.80;;;;;;;20.63;100.00;102005.86;1876937;75;86365;-72
2021/06/11 22:16:03;;;;;;;3.07;2.57;;;;;;;20.50;100.00;102012.44;1939115;72;39548;-75
2021/06/11 22:21:28;;;;;;;4.37;3.13;;;;;;;20.47;100.00;102018.75;1943551;73;39526;-71
2021/06/11 22:26:53;;;;;;;3.87;3.07;;;;;;;20.44;100.00;102027.87;1777157;79;86522;-70
2021/06/11 22:32:17;;;;;;;2.90;2.70;;;;;;;20.23;100.00;102030.94;1916239;73;39510;-71
2021/06/11 22:37:43;;;;;;;3.17;2.80;;;;;;;20.28;100.00;102044.92;1869407;76;85411;-73
2021/06/11 22:43:11;;;;;;;3.23;2.70;;;;;;;20.25;100.00;102044.97;1947069;73;39390;-74
2021/06/11 22:48:34;;;;;;;3.40;2.50;;;;;;;20.22;100.00;102046.20;1877174;75;86555;-73
2021/06/11 22:54:00;;;;;;;3.23;2.70;;;;;;;20.18;100.00;102059.28;1867151;75;85805;-74
2021/06/11 22:59:24;;;;;;;3.87;2.50;;;;;;;20.17;100.00;102072.55;1893334;73;39484;-74
2021/06/11 23:04:49;;;;;;;2.80;2.23;;;;;;;20.16;100.00;102085.55;1869289;76;86173;-73
2021/06/11 23:10:13;;;;;;;2.37;2.17;;;;;;;20.17;100.00;102088.07;1923191;73;39562;-74
2021/06/11 23:15:38;;;;;;;2.20;2.00;;;;;;;20.12;100.00;102089.60;1877115;75;85878;-73
2021/06/11 23:21:03;;;;;;;2.77;2.03;;;;;;;20.08;100.00;102082.94;1924687;73;40352;-73
2021/06/11 23:26:32;;;;;;;2.10;1.97;;;;;;;19.96;100.00;102083.50;1924701;73;39739;-70